Time;durP1;ratioP1;P1;durP2;ratioP2;P2;SDS_P1;SDS_P2;PMS_P1;PMS_P2;Temp;Humidity;BMP_temperature;BMP_pressure;BME280_temperature;BME280_humidity;BME280_pressure;Samples;Min_cycle;Max_cycle;Signal;HPM_P1;HPM_P2
2023/09/29 00:00:35;;;;;;;18.90;6.90;;;;;;;20.89;61.83;99029.13;5095027;28;20060;-45
2023/09/29 00:03:02;;;;;;;15.48;6.65;;;;;;;21.09;60.85;99035.63;5094979;28;20490;-45
2023/09/29 00:05:28;;;;;;;9.98;7.15;;;;;;;20.87;60.64;99033.91;5094818;28;20099;-45
2023/09/29 00:07:55;;;;;;;10.32;6.03;;;;;;;20.50;61.50;99040.06;5093304;28;20108;-45
2023/09/29 00:10:21;;;;;;;11.13;6.60;;;;;;;20.39;62.38;99040.25;5093517;28;20051;-45
2023/09/29 00:12:48;;;;;;;11.82;7.30;;;;;;;20.48;62.95;99039.53;5093318;28;20077;-45
2023/09/29 00:15:15;;;;;;;10.77;6.47;;;;;;;20.63;62.39;99046.84;5094632;28;20025;-45
2023/09/29 00:17:41;;;;;;;8.27;6.38;;;;;;;20.33;61.25;99042.06;5094566;28;20024;-45
2023/09/29 00:20:19;;;;;;;13.20;7.35;;;;;;;20.01;63.34;99034.09;5093279;28;20044;-45
2023/09/29 00:22:46;;;;;;;12.95;6.28;;;;;;;20.28;63.00;99032.19;5094572;28;20049;-45
2023/09/29 00:25:12;;;;;;;14.30;5.80;;;;;;;20.33;62.41;99029.53;5094708;28;20081;-45
2023/09/29 00:27:38;;;;;;;12.88;6.80;;;;;;;20.31;62.71;99030.88;5094761;28;20435;-45
2023/09/29 00:30:06;;;;;;;12.85;6.10;;;;;;;20.47;62.47;99032.56;5094373;28;20078;-45
2023/09/29 00:32:32;;;;;;;12.23;6.10;;;;;;;20.49;62.21;99027.78;5094314;28;20030;-45
2023/09/29 00:34:58;;;;;;;12.77;6.30;;;;;;;20.52;62.49;99029.13;5094257;28;20487;-45
2023/09/29 00:37:25;;;;;;;14.27;8.55;;;;;;;20.60;62.33;99034.00;5094209;28;20024;-45
2023/09/29 00:39:52;;;;;;;13.48;6.68;;;;;;;20.61;61.82;99032.97;5094436;28;20394;-45
2023/09/29 00:42:18;;;;;;;12.23;6.53;;;;;;;20.61;61.76;99032.16;5094166;28;20032;-45
2023/09/29 00:44:45;;;;;;;14.05;6.20;;;;;;;20.51;61.84;99030.22;5094037;28;20024;-45
2023/09/29 00:47:11;;;;;;;12.68;7.15;;;;;;;20.50;62.24;99029.41;5092676;28;20028;-45
2023/09/29 00:49:38;;;;;;;12.55;7.13;;;;;;;20.58;61.93;99024.63;5094048;28;20027;-45
2023/09/29 00:52:04;;;;;;;18.05;6.82;;;;;;;20.40;61.59;99023.19;5093827;28;20030;-45
2023/09/29 00:54:35;;;;;;;11.02;6.18;;;;;;;20.33;62.03;99020.75;5093927;28;20512;-45
2023/09/29 00:57:04;;;;;;;11.18;5.47;;;;;;;20.28;62.02;99024.19;5093865;28;20028;-45
2023/09/29 00:59:31;;;;;;;13.05;6.90;;;;;;;20.24;62.19;99028.44;5093824;28;20020;-45
2023/09/29 01:01:58;;;;;;;11.20;7.45;;;;;;;20.23;62.44;99026.00;5093848;28;20097;-45
2023/09/29 01:04:24;;;;;;;10.20;6.03;;;;;;;20.27;62.66;99022.56;5093672;28;20028;-45
2023/09/29 01:06:50;;;;;;;14.30;7.03;;;;;;;20.19;62.06;99017.72;5092349;28;20169;-45
2023/09/29 01:09:16;;;;;;;42.10;37.72;;;;;;;20.12;62.39;99020.59;5093393;28;20117;-44
2023/09/29 01:11:43;;;;;;;13.07;8.45;;;;;;;19.98;62.58;99021.25;5093432;28;20032;-45
2023/09/29 01:14:11;;;;;;;9.70;5.93;;;;;;;19.55;62.82;99019.25;5092248;28;20228;-45
2023/09/29 01:16:39;;;;;;;12.82;5.95;;;;;;;19.12;64.11;99015.59;5093693;28;20568;-45
2023/09/29 01:19:11;;;;;;;11.93;6.85;;;;;;;18.82;65.75;99016.00;5092102;28;20024;-45
2023/09/29 01:21:39;;;;;;;14.98;6.60;;;;;;;18.65;66.72;99020.53;5093421;28;20886;-44
2023/09/29 01:24:07;;;;;;;14.05;7.80;;;;;;;18.57;68.29;99024.38;5091979;28;20032;-45
2023/09/29 01:26:33;;;;;;;42.05;34.97;;;;;;;18.41;68.18;99020.72;5093183;28;20031;-45
2023/09/29 01:28:58;;;;;;;56.38;50.78;;;;;;;18.39;69.19;99028.16;5093234;28;20032;-45
2023/09/29 01:31:24;;;;;;;23.17;17.02;;;;;;;18.54;69.33;99022.25;5093327;28;20035;-45
2023/09/29 01:33:50;;;;;;;11.75;7.60;;;;;;;18.75;70.55;99025.97;5093108;28;20555;-45
2023/09/29 01:36:16;;;;;;;12.75;7.15;;;;;;;19.44;70.05;99024.72;5093150;28;20043;-45
2023/09/29 01:38:42;;;;;;;14.15;7.45;;;;;;;20.03;68.06;99016.78;5075071;28;20052;-45
2023/09/29 01:41:08;;;;;;;13.48;7.10;;;;;;;20.41;66.18;99020.28;5092987;28;20013;-45
2023/09/29 01:43:35;;;;;;;13.60;6.53;;;;;;;20.73;64.44;99017.56;5092900;28;20077;-45
2023/09/29 01:46:01;;;;;;;18.02;7.35;;;;;;;21.11;63.32;99012.94;5092898;28;20815;-45
2023/09/29 01:48:26;;;;;;;16.85;6.75;;;;;;;21.27;61.63;99011.13;5092895;28;20024;-45
2023/09/29 01:50:52;;;;;;;11.13;6.10;;;;;;;21.06;60.81;99015.56;5091454;28;20459;-45
2023/09/29 01:53:18;;;;;;;19.42;7.63;;;;;;;21.02;61.28;99008.34;5092752;28;20056;-45
2023/09/29 01:55:43;;;;;;;18.13;6.50;;;;;;;21.42;60.90;99013.03;5092992;28;20027;-45
2023/09/29 01:58:09;;;;;;;14.98;7.55;;;;;;;21.80;59.45;99008.31;5092280;28;20145;-44
2023/09/29 02:00:35;;;;;;;17.73;6.65;;;;;;;21.98;58.50;99014.22;5091342;28;20020;-45
2023/09/29 02:03:04;;;;;;;16.70;7.32;;;;;;;21.91;57.83;99014.44;5092541;28;20031;-45
2023/09/29 02:05:30;;;;;;;12.63;6.68;;;;;;;21.62;58.29;99006.94;5092474;28;20055;-45
2023/09/29 02:07:58;;;;;;;10.20;5.30;;;;;;;21.29;58.54;99008.19;5092250;28;20125;-45
2023/09/29 02:10:24;;;;;;;8.02;5.07;;;;;;;20.84;59.12;99014.94;5091594;28;20050;-44
2023/09/29 02:12:58;;;;;;;15.30;7.07;;;;;;;20.32;60.92;99013.78;5092267;28;20024;-45
2023/09/29 02:15:25;;;;;;;16.55;7.10;;;;;;;20.34;62.08;99015.16;5092410;28;20386;-45
2023/09/29 02:17:51;;;;;;;16.27;6.68;;;;;;;20.79;61.69;99012.25;5092402;28;20031;-45
2023/09/29 02:20:30;;;;;;;12.90;6.43;;;;;;;21.28;60.61;99017.25;5090971;28;20398;-45
2023/09/29 02:22:57;;;;;;;13.55;6.93;;;;;;;21.64;59.24;99018.16;5092543;28;20161;-45
2023/09/29 02:25:26;;;;;;;14.55;5.85;;;;;;;21.71;58.00;99007.22;5090923;28;20444;-45
2023/09/29 02:27:59;;;;;;;13.45;6.07;;;;;;;21.59;58.19;99007.50;5092197;28;20557;-45
2023/09/29 02:30:26;;;;;;;14.25;5.93;;;;;;;21.27;57.92;99007.63;5092153;28;20028;-45
2023/09/29 02:32:52;;;;;;;13.65;6.03;;;;;;;21.05;59.36;99016.66;5090846;28;20026;-45
2023/09/29 02:35:18;;;;;;;9.88;7.00;;;;;;;21.14;59.73;99011.59;5090801;28;20028;-45
2023/09/29 02:37:44;;;;;;;8.00;5.65;;;;;;;21.19;59.39;99011.63;5090710;28;20496;-45
2023/09/29 02:40:14;;;;;;;16.10;5.57;;;;;;;20.76;58.96;99018.91;5092000;28;20032;-45
2023/09/29 02:42:43;;;;;;;8.45;5.47;;;;;;;20.19;59.98;99022.25;5092015;28;20123;-45
2023/09/29 02:45:09;;;;;;;11.55;6.05;;;;;;;19.41;61.54;99034.00;5091958;28;20029;-45
2023/09/29 02:47:39;;;;;;;9.15;4.88;;;;;;;18.82;63.56;99036.47;5090686;28;20025;-45
2023/09/29 02:50:09;;;;;;;16.75;7.35;;;;;;;18.45;65.17;99034.31;5092135;28;20074;-45
2023/09/29 02:52:37;;;;;;;11.05;5.85;;;;;;;18.43;66.20;99042.56;5091735;28;20027;-45
2023/09/29 02:55:04;;;;;;;8.73;6.28;;;;;;;18.74;66.92;99040.34;5090533;28;20386;-45
2023/09/29 02:57:30;;;;;;;13.77;6.13;;;;;;;19.35;66.19;99046.44;5091907;28;20184;-45
2023/09/29 02:59:57;;;;;;;18.38;7.13;;;;;;;19.94;64.92;99051.09;5091829;28;20520;-45
2023/09/29 03:02:23;;;;;;;17.00;6.65;;;;;;;20.49;63.43;99046.44;5091702;28;20039;-45
2023/09/29 03:04:50;;;;;;;18.00;6.40;;;;;;;20.73;61.70;99043.44;5090504;28;20021;-45
2023/09/29 03:07:17;;;;;;;14.90;6.60;;;;;;;20.67;61.45;99047.13;5091722;28;20081;-45
2023/09/29 03:09:43;;;;;;;13.88;6.18;;;;;;;20.67;61.36;99052.47;5092846;28;20391;-45
2023/09/29 03:12:09;;;;;;;12.00;7.55;;;;;;;20.79;61.13;99052.28;5094479;28;20026;-45
2023/09/29 03:14:34;;;;;;;6.93;5.53;;;;;;;20.77;60.19;99041.84;5094540;28;20505;-45
2023/09/29 03:17:00;;;;;;;11.80;5.22;;;;;;;20.32;59.64;99046.59;5095753;28;20085;-45
2023/09/29 03:19:27;;;;;;;9.55;5.25;;;;;;;19.64;61.31;99048.06;5095765;28;20028;-45
2023/09/29 03:21:53;;;;;;;9.65;6.35;;;;;;;19.09;63.19;99058.63;5095658;28;20107;-45
2023/09/29 03:24:20;;;;;;;23.77;16.48;;;;;;;18.72;64.78;99063.69;5095677;28;20047;-45
2023/09/29 03:26:49;;;;;;;11.77;6.65;;;;;;;18.59;65.98;99066.69;5095611;28;20020;-45
2023/09/29 03:29:14;;;;;;;14.32;6.60;;;;;;;18.73;66.85;99057.31;5095523;28;20020;-45
2023/09/29 03:31:40;;;;;;;13.18;6.05;;;;;;;19.16;66.46;99058.47;5095456;28;20043;-45
2023/09/29 03:34:06;;;;;;;17.33;6.53;;;;;;;19.57;65.37;99058.94;5095438;28;20106;-45
2023/09/29 03:36:33;;;;;;;12.88;6.22;;;;;;;19.94;64.31;99055.59;5095438;28;20434;-45
2023/09/29 03:38:59;;;;;;;11.00;6.45;;;;;;;20.25;63.04;99064.66;5095640;28;20024;-45
2023/09/29 03:41:25;;;;;;;10.43;6.15;;;;;;;20.33;62.37;99058.06;5094043;28;20393;-45
2023/09/29 03:43:52;;;;;;;14.93;6.55;;;;;;;20.25;61.67;99055.88;5093959;28;20436;-45
2023/09/29 03:46:21;;;;;;;41.28;19.20;;;;;;;20.07;61.91;99055.19;5095252;28;20153;-45
2023/09/29 03:48:47;;;;;;;26.40;8.98;;;;;;;19.99;62.12;99055.66;5095181;28;20059;-45
2023/09/29 03:51:33;;;;;;;14.35;5.95;;;;;;;19.96;62.32;99056.16;5093703;28;20031;-45
2023/09/29 03:53:59;;;;;;;16.65;7.70;;;;;;;19.94;62.15;99058.25;5094149;28;20024;-45
2023/09/29 03:56:25;;;;;;;8.23;5.75;;;;;;;19.71;62.21;99062.84;5094937;28;20027;-45
2023/09/29 03:58:55;;;;;;;10.45;5.90;;;;;;;19.44;62.91;99064.66;5094984;28;20028;-45
2023/09/29 04:01:21;;;;;;;6.50;5.20;;;;;;;19.36;63.82;99069.34;5093650;28;20016;-45
2023/09/29 04:03:47;;;;;;;10.32;4.90;;;;;;;19.34;63.53;99062.69;5094908;28;20108;-45
2023/09/29 04:06:13;;;;;;;13.38;5.95;;;;;;;19.23;63.75;99068.91;5094904;28;20099;-45
2023/09/29 04:08:39;;;;;;;15.27;6.75;;;;;;;19.34;64.70;99071.47;5093264;28;20058;-45
2023/09/29 04:11:04;;;;;;;9.13;5.35;;;;;;;19.50;63.83;99069.78;5094778;28;20022;-45
2023/09/29 04:13:30;;;;;;;9.35;5.97;;;;;;;19.20;63.30;99075.56;5094681;28;20024;-45
2023/09/29 04:15:58;;;;;;;9.70;5.63;;;;;;;18.83;64.08;99080.63;5094690;28;20156;-45
2023/09/29 04:18:24;;;;;;;7.75;5.80;;;;;;;18.60;64.77;99087.72;5094718;28;20054;-45
2023/09/29 04:20:50;;;;;;;7.40;5.00;;;;;;;18.35;65.09;99091.59;5092830;28;20035;-45
2023/09/29 04:23:15;;;;;;;10.75;5.40;;;;;;;18.10;66.14;99094.63;5093232;28;20032;-45
2023/09/29 04:25:43;;;;;;;11.80;5.93;;;;;;;18.04;66.89;99100.88;5094476;28;20024;-45
2023/09/29 04:28:08;;;;;;;9.07;6.90;;;;;;;17.93;67.30;99112.38;5094384;28;20539;-45
2023/09/29 04:30:34;;;;;;;10.65;6.13;;;;;;;18.00;68.08;99115.69;5094393;28;20024;-45
2023/09/29 04:33:00;;;;;;;10.18;5.18;;;;;;;18.25;67.99;99117.16;5094313;28;20028;-45
2023/09/29 04:35:25;;;;;;;7.43;5.35;;;;;;;18.45;67.17;99117.53;5094261;28;20078;-45
2023/09/29 04:37:51;;;;;;;14.38;6.40;;;;;;;18.69;67.09;99114.69;5094304;28;20015;-45
2023/09/29 04:40:17;;;;;;;13.88;5.93;;;;;;;18.98;66.58;99126.06;5093195;28;20031;-45
2023/09/29 04:42:42;;;;;;;11.95;6.40;;;;;;;19.36;65.80;99129.78;5094420;28;20016;-45
2023/09/29 04:45:08;;;;;;;14.77;6.28;;;;;;;19.87;64.95;99126.94;5094167;28;20375;-45
2023/09/29 04:47:34;;;;;;;14.20;6.35;;;;;;;20.37;63.30;99138.34;5094089;28;20027;-45
2023/09/29 04:50:00;;;;;;;11.10;6.13;;;;;;;20.91;61.52;99141.72;5094050;28;20074;-45
2023/09/29 04:52:26;;;;;;;12.88;5.22;;;;;;;21.27;59.68;99141.09;5092667;28;20032;-45
2023/09/29 04:54:52;;;;;;;17.02;6.63;;;;;;;21.00;59.14;99143.91;5092733;28;20016;-45
2023/09/29 04:57:18;;;;;;;13.60;5.90;;;;;;;20.66;60.10;99147.66;5093892;28;20035;-45
2023/09/29 04:59:45;;;;;;;17.25;5.65;;;;;;;20.52;60.46;99160.59;5093893;28;20016;-45
2023/09/29 05:02:10;;;;;;;17.10;5.13;;;;;;;20.17;60.80;99161.06;5094056;28;20370;-45
2023/09/29 05:04:36;;;;;;;16.77;6.18;;;;;;;19.74;61.27;99168.06;5092385;28;20023;-45
2023/09/29 05:07:02;;;;;;;6.47;5.15;;;;;;;19.29;62.15;99171.72;5093979;28;20474;-45
2023/09/29 05:09:27;;;;;;;9.80;5.88;;;;;;;18.85;63.11;99168.94;5093476;28;20494;-45
2023/09/29 05:11:53;;;;;;;12.25;6.22;;;;;;;18.49;64.29;99179.78;5093523;28;20059;-45
2023/09/29 05:14:19;;;;;;;10.90;5.28;;;;;;;18.33;65.22;99172.56;5092285;28;20086;-45
2023/09/29 05:16:44;;;;;;;8.95;5.15;;;;;;;18.11;65.50;99175.09;5093499;28;20016;-45
2023/09/29 05:19:10;;;;;;;14.80;6.28;;;;;;;17.81;66.67;99184.09;5093729;28;20060;-45
2023/09/29 05:21:36;;;;;;;11.30;5.50;;;;;;;17.53;68.40;99188.28;5092107;28;20126;-45
2023/09/29 05:24:02;;;;;;;9.30;4.90;;;;;;;17.28;69.41;99187.72;5093702;28;20367;-44
2023/09/29 05:26:28;;;;;;;9.88;5.45;;;;;;;17.08;70.40;99191.56;5075232;28;20082;-44
2023/09/29 05:28:55;;;;;;;14.18;6.35;;;;;;;17.10;70.96;99192.13;5092275;28;20028;-44
2023/09/29 05:31:21;;;;;;;8.38;6.10;;;;;;;17.22;71.44;99194.75;5092099;28;20103;-44
2023/09/29 05:33:47;;;;;;;14.07;6.07;;;;;;;17.14;71.51;99187.16;5092543;28;20073;-44
2023/09/29 05:36:13;;;;;;;14.60;5.80;;;;;;;17.13;72.12;99190.84;5091826;28;20173;-44
2023/09/29 05:38:39;;;;;;;10.95;5.55;;;;;;;17.13;71.91;99196.16;5091804;28;20115;-45
2023/09/29 05:41:04;;;;;;;12.60;6.03;;;;;;;16.99;72.37;99202.72;5091762;28;20504;-45
2023/09/29 05:43:30;;;;;;;12.02;6.30;;;;;;;17.08;72.75;99202.16;5092906;28;20547;-45
2023/09/29 05:45:56;;;;;;;10.80;5.70;;;;;;;17.15;72.15;99205.50;5091604;28;20028;-45
2023/09/29 05:48:21;;;;;;;12.73;5.90;;;;;;;17.20;71.99;99206.66;5093177;28;20028;-45
2023/09/29 05:50:47;;;;;;;11.07;5.70;;;;;;;17.05;71.75;99212.41;5092871;28;20512;-45
2023/09/29 05:53:13;;;;;;;13.98;5.72;;;;;;;17.16;72.27;99208.94;5092775;28;20135;-45
2023/09/29 05:55:38;;;;;;;11.90;6.38;;;;;;;17.36;71.46;99217.38;5091458;28;20023;-45
2023/09/29 05:58:04;;;;;;;9.93;5.10;;;;;;;17.24;70.81;99218.41;5092957;28;20046;-45
2023/09/29 06:00:30;;;;;;;15.30;7.75;;;;;;;17.24;71.53;99218.41;5092685;28;20028;-45
2023/09/29 06:02:56;;;;;;;10.75;5.25;;;;;;;17.39;71.27;99223.28;5092685;28;20413;-45
2023/09/29 06:05:22;;;;;;;11.60;6.00;;;;;;;17.45;70.61;99225.78;5092613;28;20044;-45
2023/09/29 06:07:47;;;;;;;9.82;5.70;;;;;;;17.46;70.61;99231.91;5092377;28;20123;-45
2023/09/29 06:10:13;;;;;;;12.52;7.15;;;;;;;17.56;70.50;99230.28;5092550;28;20035;-45
2023/09/29 06:12:39;;;;;;;9.43;5.60;;;;;;;17.98;69.84;99239.94;5074242;28;20036;-45
2023/09/29 06:15:06;;;;;;;14.20;9.38;;;;;;;18.62;67.53;99228.38;5092354;28;20529;-45
2023/09/29 06:17:32;;;;;;;10.05;5.68;;;;;;;19.18;65.79;99225.84;5092441;28;20020;-45
2023/09/29 06:19:58;;;;;;;10.98;6.45;;;;;;;19.81;63.97;99235.25;5091074;28;20111;-45
2023/09/29 06:22:27;;;;;;;8.30;5.40;;;;;;;20.69;61.60;99234.38;5090992;28;20159;-45
2023/09/29 06:24:53;;;;;;;11.63;5.43;;;;;;;21.45;58.95;99225.34;5092280;28;20027;-45
2023/09/29 06:27:18;;;;;;;8.88;4.85;;;;;;;21.75;57.05;99230.03;5092519;28;20028;-45
2023/09/29 06:29:50;;;;;;;9.20;4.93;;;;;;;21.79;55.58;99233.00;5090860;28;20020;-45
2023/09/29 06:32:16;;;;;;;9.95;6.35;;;;;;;21.60;55.44;99229.97;5092421;28;20028;-45
2023/09/29 06:34:42;;;;;;;12.40;5.97;;;;;;;21.30;55.96;99234.84;5090762;28;20027;-45
2023/09/29 06:37:10;;;;;;;11.48;5.30;;;;;;;20.87;57.26;99233.22;5092135;28;20024;-45
2023/09/29 06:39:36;;;;;;;12.02;7.68;;;;;;;20.43;58.56;99247.44;5092063;28;20059;-45
2023/09/29 06:42:03;;;;;;;17.45;5.88;;;;;;;20.18;59.44;99242.63;5092032;28;20089;-45
2023/09/29 06:44:30;;;;;;;11.15;5.13;;;;;;;19.81;60.48;99245.91;5091874;28;20102;-45
2023/09/29 06:46:56;;;;;;;11.05;5.47;;;;;;;19.78;61.57;99245.59;5091950;28;20024;-45
2023/09/29 06:49:22;;;;;;;12.52;9.65;;;;;;;20.45;60.76;99244.53;5091966;28;20028;-45
2023/09/29 06:51:48;;;;;;;12.00;6.05;;;;;;;21.20;58.64;99250.78;5090480;28;20088;-45
2023/09/29 06:54:14;;;;;;;18.27;5.82;;;;;;;21.92;56.84;99251.25;5091824;28;20021;-45
2023/09/29 06:56:40;;;;;;;12.73;6.75;;;;;;;22.66;55.00;99250.13;5090539;28;20417;-45
2023/09/29 06:59:07;;;;;;;17.00;5.95;;;;;;;23.77;52.88;99246.03;5090547;28;20020;-45
2023/09/29 07:01:33;;;;;;;11.35;5.80;;;;;;;24.56;49.27;99252.38;5091784;28;20020;-46
2023/09/29 07:03:59;;;;;;;12.90;5.97;;;;;;;24.97;48.34;99257.47;5091824;28;20028;-45
2023/09/29 07:06:25;;;;;;;13.10;5.95;;;;;;;25.18;45.82;99252.69;5091678;28;20028;-45
2023/09/29 07:08:51;;;;;;;13.55;5.50;;;;;;;24.91;46.39;99270.13;5091598;28;20048;-45
2023/09/29 07:11:17;;;;;;;12.68;4.93;;;;;;;25.02;45.89;99278.09;5091675;28;20089;-45
2023/09/29 07:13:43;;;;;;;14.05;5.03;;;;;;;25.61;45.25;99279.72;5091955;28;20032;-45
2023/09/29 07:16:09;;;;;;;20.27;5.88;;;;;;;26.38;44.17;99275.31;5090382;28;20028;-45
2023/09/29 07:18:35;;;;;;;32.58;5.90;;;;;;;27.29;41.09;99275.84;5090397;28;20024;-45
2023/09/29 07:21:00;;;;;;;26.88;6.82;;;;;;;27.74;41.27;99269.09;5091656;28;20030;-45
2023/09/29 07:23:28;;;;;;;22.38;6.55;;;;;;;28.53;39.92;99273.41;5091597;28;20107;-45
2023/09/29 07:25:54;;;;;;;21.60;5.35;;;;;;;29.23;37.97;99272.03;5091534;28;20262;-46
2023/09/29 07:28:20;;;;;;;20.10;5.72;;;;;;;29.50;37.32;99265.66;5090400;28;20031;-46
2023/09/29 07:30:47;;;;;;;18.27;6.03;;;;;;;29.79;36.32;99269.75;5090600;28;20020;-46
2023/09/29 07:33:13;;;;;;;29.05;7.65;;;;;;;29.59;36.85;99276.50;5091476;28;20077;-45
2023/09/29 07:35:39;;;;;;;45.85;8.15;;;;;;;29.68;36.80;99267.31;5091486;28;20024;-46
2023/09/29 07:38:05;;;;;;;35.58;6.90;;;;;;;29.78;36.34;99270.84;5091729;28;20393;-46
2023/09/29 07:40:34;;;;;;;14.85;5.55;;;;;;;29.94;35.72;99265.81;5090479;28;20505;-46
2023/09/29 07:43:01;;;;;;;17.25;5.68;;;;;;;30.26;35.83;99261.88;5091393;28;20028;-46
2023/09/29 07:45:28;;;;;;;23.25;6.75;;;;;;;30.67;35.19;99272.28;5091448;28;20077;-46
2023/09/29 07:47:53;;;;;;;19.13;5.55;;;;;;;31.26;33.93;99279.84;5091428;28;20505;-46
2023/09/29 07:50:19;;;;;;;27.08;6.50;;;;;;;31.78;33.44;99278.09;5073480;28;20023;-46
2023/09/29 07:52:45;;;;;;;22.77;6.05;;;;;;;32.31;32.60;99279.38;5091297;28;20456;-46
2023/09/29 07:55:11;;;;;;;25.67;7.78;;;;;;;32.90;31.58;99288.50;5073871;28;20024;-46
2023/09/29 07:57:38;;;;;;;38.03;8.13;;;;;;;33.27;31.49;99289.44;5095039;28;20040;-46
2023/09/29 08:00:05;;;;;;;76.45;10.30;;;;;;;33.76;31.08;99288.72;5095000;28;20016;-46
2023/09/29 08:02:31;;;;;;;79.93;10.40;;;;;;;34.10;29.83;99283.91;5094979;28;20020;-46
2023/09/29 08:04:57;;;;;;;39.00;7.28;;;;;;;34.55;29.40;99299.25;5094893;28;20031;-46
2023/09/29 08:07:23;;;;;;;34.80;7.07;;;;;;;34.81;29.45;99307.03;5094581;28;20024;-47
2023/09/29 08:09:50;;;;;;;27.13;5.72;;;;;;;34.62;29.63;99305.72;5094816;28;20024;-46
2023/09/29 08:12:19;;;;;;;23.42;7.10;;;;;;;34.35;30.03;99306.47;5094647;28;20127;-46
2023/09/29 08:14:45;;;;;;;18.75;5.38;;;;;;;34.33;30.00;99311.47;5093426;28;20054;-46
2023/09/29 08:17:11;;;;;;;25.70;6.32;;;;;;;34.36;29.85;99306.13;5094627;28;20020;-47
2023/09/29 08:19:37;;;;;;;17.73;5.20;;;;;;;34.54;29.73;99311.31;5093310;28;20448;-46
2023/09/29 08:22:03;;;;;;;35.88;7.53;;;;;;;34.77;29.32;99306.97;5093356;28;20032;-46
2023/09/29 08:24:32;;;;;;;15.63;5.07;;;;;;;35.14;28.65;99305.97;5093292;28;20024;-46
2023/09/29 08:27:00;;;;;;;24.85;6.55;;;;;;;35.77;28.29;99300.56;5094395;28;20020;-46
2023/09/29 08:29:26;;;;;;;132.60;11.88;;;;;;;36.30;27.32;99311.16;5094347;28;20020;-46
2023/09/29 08:31:53;;;;;;;93.75;10.23;;;;;;;36.31;27.14;99301.81;5093013;28;20032;-46
2023/09/29 08:34:19;;;;;;;26.10;5.68;;;;;;;36.35;26.60;99310.88;5094332;28;20061;-47
2023/09/29 08:36:45;;;;;;;62.72;11.30;;;;;;;36.90;26.12;99304.56;5094205;28;20025;-46
2023/09/29 08:39:11;;;;;;;52.53;8.10;;;;;;;37.46;25.72;99308.69;5094357;28;20035;-46
2023/09/29 08:41:45;;;;;;;20.55;5.97;;;;;;;37.76;25.12;99317.81;5094219;28;20411;-47
2023/09/29 08:44:17;;;;;;;71.50;9.93;;;;;;;37.86;24.81;99313.66;5094245;28;20032;-46
2023/09/29 08:46:47;;;;;;;69.35;9.32;;;;;;;37.85;24.81;99311.28;5094173;28;20035;-47
2023/09/29 08:49:17;;;;;;;27.85;5.88;;;;;;;37.75;24.84;99315.44;5094109;28;20020;-46
2023/09/29 08:51:46;;;;;;;31.50;5.95;;;;;;;37.47;25.50;99310.25;5093916;28;20032;-47
2023/09/29 08:54:13;;;;;;;25.40;6.68;;;;;;;37.49;24.99;99313.44;5094074;28;20100;-47
2023/09/29 08:56:39;;;;;;;19.30;6.40;;;;;;;37.68;25.06;99316.13;5093944;28;20069;-47
2023/09/29 08:59:06;;;;;;;20.45;5.55;;;;;;;37.84;24.60;99307.75;5093905;28;20531;-46
2023/09/29 09:01:32;;;;;;;26.70;9.48;;;;;;;37.90;24.62;99308.25;5092467;28;20028;-47
2023/09/29 09:03:58;;;;;;;19.02;6.38;;;;;;;38.19;24.26;99308.66;5092452;28;20027;-47
2023/09/29 09:06:26;;;;;;;14.65;4.65;;;;;;;38.17;24.14;99303.53;5093223;28;20567;-46
2023/09/29 09:08:54;;;;;;;30.42;9.15;;;;;;;38.08;24.47;99301.09;5092895;28;20036;-47
2023/09/29 09:11:20;;;;;;;24.85;6.63;;;;;;;38.33;24.17;99309.63;5093668;28;20024;-47
2023/09/29 09:14:01;;;;;;;30.15;10.15;;;;;;;38.63;23.73;99302.59;5093534;28;20024;-47
2023/09/29 09:16:28;;;;;;;23.80;7.18;;;;;;;38.78;23.43;99304.34;5093514;28;20028;-47
2023/09/29 09:18:54;;;;;;;24.00;6.18;;;;;;;39.02;23.53;99313.22;5092196;28;20055;-47
2023/09/29 09:21:31;;;;;;;29.98;6.70;;;;;;;39.06;23.09;99314.84;5093638;28;20059;-47
2023/09/29 09:23:57;;;;;;;19.55;4.88;;;;;;;38.92;23.17;99311.94;5092310;28;20031;-47
2023/09/29 09:26:22;;;;;;;19.95;4.57;;;;;;;38.75;23.22;99311.34;5093353;28;20095;-47
2023/09/29 09:28:48;;;;;;;9.40;4.60;;;;;;;38.58;23.54;99317.44;5093303;28;20031;-47
2023/09/29 09:31:13;;;;;;;24.17;5.88;;;;;;;38.41;24.07;99310.50;5093260;28;20069;-46
2023/09/29 09:33:39;;;;;;;23.90;6.00;;;;;;;38.31;23.55;99316.66;5093119;28;20386;-47
2023/09/29 09:36:09;;;;;;;30.25;5.97;;;;;;;38.20;23.81;99318.50;5093165;28;20398;-47
2023/09/29 09:38:37;;;;;;;26.02;6.57;;;;;;;38.33;23.33;99325.31;5093431;28;20536;-47
2023/09/29 09:41:04;;;;;;;13.48;5.07;;;;;;;38.48;23.73;99323.56;5091756;28;20027;-46
2023/09/29 09:43:34;;;;;;;11.20;5.15;;;;;;;38.48;23.58;99318.06;5093037;28;20048;-46
2023/09/29 09:46:11;;;;;;;28.33;6.07;;;;;;;38.46;23.50;99320.38;5093081;28;20459;-47
2023/09/29 09:48:49;;;;;;;17.60;5.70;;;;;;;38.59;23.76;99321.75;5093346;28;20402;-47
2023/09/29 09:51:32;;;;;;;20.52;5.65;;;;;;;38.67;23.68;99325.38;5092977;28;20020;-46
2023/09/29 09:54:02;;;;;;;12.27;4.95;;;;;;;39.29;22.31;99314.66;5092901;28;20489;-47
2023/09/29 09:56:41;;;;;;;17.45;4.72;;;;;;;39.83;22.04;99306.09;5092990;28;20028;-47
2023/09/29 09:59:08;;;;;;;14.25;4.35;;;;;;;40.48;21.38;99312.75;5092797;28;20027;-47
2023/09/29 10:01:34;;;;;;;28.17;5.78;;;;;;;40.93;20.93;99302.28;5091411;28;20024;-47
2023/09/29 10:04:06;;;;;;;32.53;6.05;;;;;;;41.42;20.27;99303.53;5091659;28;20093;-47
2023/09/29 10:06:33;;;;;;;20.25;5.45;;;;;;;42.03;19.55;99313.75;5092636;28;20111;-47
2023/09/29 10:09:09;;;;;;;15.52;4.05;;;;;;;41.89;19.69;99315.31;5092324;28;20056;-47
2023/09/29 10:11:34;;;;;;;16.13;4.30;;;;;;;40.69;20.57;99321.09;5092420;28;20028;-47
2023/09/29 10:14:11;;;;;;;23.50;5.38;;;;;;;39.30;23.13;99329.97;5092485;28;20104;-47
2023/09/29 10:16:38;;;;;;;15.93;4.53;;;;;;;37.85;24.39;99331.28;5092492;28;20088;-47
2023/09/29 10:19:13;;;;;;;17.45;4.43;;;;;;;36.79;26.22;99324.28;5091962;28;20505;-46
2023/09/29 10:21:46;;;;;;;13.70;5.03;;;;;;;37.61;25.36;99326.19;5092417;28;20076;-47
2023/09/29 10:24:24;;;;;;;55.00;7.60;;;;;;;38.96;23.79;99321.00;5092284;28;20031;-47
2023/09/29 10:26:50;;;;;;;23.38;4.78;;;;;;;39.91;22.47;99325.00;5092341;28;20621;-47
2023/09/29 10:29:20;;;;;;;23.60;7.22;;;;;;;40.27;21.72;99327.19;5092234;28;20020;-47
2023/09/29 10:31:46;;;;;;;18.25;4.95;;;;;;;40.26;21.65;99328.34;5092355;28;20028;-47
2023/09/29 10:34:22;;;;;;;22.50;6.53;;;;;;;40.32;21.20;99316.59;5092135;28;20367;-47
2023/09/29 10:36:55;;;;;;;40.05;7.82;;;;;;;39.26;22.14;99320.13;5092117;28;20065;-47
2023/09/29 10:39:27;;;;;;;13.80;4.25;;;;;;;38.54;22.95;99324.81;5092120;28;20020;-47
2023/09/29 10:42:12;;;;;;;20.10;5.50;;;;;;;37.79;23.81;99324.50;5090753;28;20641;-47
2023/09/29 10:44:56;;;;;;;18.55;5.22;;;;;;;37.05;25.69;99320.09;5092076;28;20512;-46
2023/09/29 10:47:35;;;;;;;20.85;5.60;;;;;;;38.56;23.84;99325.25;5091958;28;20062;-46
2023/09/29 10:50:05;;;;;;;20.00;4.63;;;;;;;39.94;22.15;99317.94;5090908;28;20032;-47
2023/09/29 10:52:31;;;;;;;11.00;3.88;;;;;;;40.54;21.20;99311.97;5092192;28;20078;-47
2023/09/29 10:54:58;;;;;;;10.13;3.72;;;;;;;40.92;21.30;99312.50;5091883;28;20024;-47
2023/09/29 10:57:28;;;;;;;19.65;5.35;;;;;;;41.42;20.52;99316.53;5091877;28;20024;-47
2023/09/29 10:59:59;;;;;;;13.52;4.82;;;;;;;41.34;20.34;99310.25;5091882;28;20024;-47
2023/09/29 11:02:35;;;;;;;10.75;4.55;;;;;;;41.26;20.33;99311.41;5092128;28;20371;-47
2023/09/29 11:05:05;;;;;;;8.25;3.65;;;;;;;41.46;20.19;99314.56;5091843;28;20418;-47
2023/09/29 11:07:45;;;;;;;22.23;5.78;;;;;;;41.03;20.62;99293.28;5091584;28;20103;-47
2023/09/29 11:10:12;;;;;;;27.48;6.53;;;;;;;39.54;21.85;99305.84;5091652;28;20016;-47
2023/09/29 11:12:40;;;;;;;11.25;3.53;;;;;;;38.49;23.01;99301.22;5091634;28;20035;-46
2023/09/29 11:15:09;;;;;;;7.85;3.45;;;;;;;38.70;22.79;99291.72;5091679;28;20023;-47
2023/09/29 11:17:50;;;;;;;6.70;3.00;;;;;;;39.31;22.35;99293.09;5091793;28;20028;-47
2023/09/29 11:20:26;;;;;;;8.90;4.43;;;;;;;39.83;21.81;99289.59;5091842;28;20509;-46
2023/09/29 11:23:00;;;;;;;9.27;3.80;;;;;;;40.20;21.15;99294.91;5091744;28;20081;-46
2023/09/29 11:25:26;;;;;;;6.80;3.30;;;;;;;40.76;20.91;99283.78;5091844;28;20085;-47
2023/09/29 11:27:52;;;;;;;11.45;3.53;;;;;;;41.34;20.28;99287.41;5090294;28;20494;-47